createdAt,value
2022-10-16T00:01:33.394Z,1.10
2022-10-16T00:04:01.851Z,1.42
2022-10-16T00:06:29.800Z,1.30
2022-10-16T00:08:57.486Z,1.30
2022-10-16T00:11:37.583Z,1.20
2022-10-16T00:14:07.374Z,1.35
2022-10-16T00:16:35.760Z,1.60
2022-10-16T00:19:02.453Z,1.35
2022-10-16T00:21:30.798Z,1.55
2022-10-16T00:24:11.934Z,1.75
2022-10-16T00:26:39.944Z,1.58
2022-10-16T00:29:07.825Z,1.77
2022-10-16T00:31:35.277Z,1.80
2022-10-16T00:34:02.115Z,1.83
2022-10-16T00:36:28.761Z,1.70
2022-10-16T00:38:58.374Z,1.70
2022-10-16T00:41:26.873Z,1.92
2022-10-16T00:43:59.727Z,2.10
2022-10-16T00:46:28.821Z,1.60
2022-10-16T00:49:06.002Z,1.83
2022-10-16T00:51:38.623Z,2.13
2022-10-16T00:54:13.809Z,2.13
2022-10-16T00:56:46.642Z,2.22
2022-10-16T00:59:26.113Z,2.28
2022-10-16T01:01:56.610Z,1.58
2022-10-16T01:04:25.293Z,1.63
2022-10-16T01:07:13.614Z,2.00
2022-10-16T01:10:03.437Z,2.15
2022-10-16T01:13:07.827Z,1.98
2022-10-16T01:15:46.316Z,2.10
2022-10-16T01:18:19.901Z,1.92
2022-10-16T01:21:01.793Z,1.58
2022-10-16T01:23:33.494Z,2.00
2022-10-16T01:26:18.031Z,1.95
2022-10-16T01:29:01.240Z,2.00
2022-10-16T01:31:32.418Z,2.13
2022-10-16T01:34:05.435Z,2.10
2022-10-16T01:36:54.209Z,1.70
2022-10-16T01:39:25.947Z,1.80
2022-10-16T01:42:17.709Z,2.00
2022-10-16T01:44:46.639Z,2.17
2022-10-16T01:47:17.845Z,2.13
2022-10-16T01:49:45.933Z,1.67
2022-10-16T01:52:16.227Z,2.28
2022-10-16T01:54:46.842Z,1.95
2022-10-16T01:57:15.190Z,1.90
2022-10-16T01:59:47.202Z,2.08
2022-10-16T02:02:15.893Z,1.77
2022-10-16T02:04:52.349Z,1.70
2022-10-16T02:07:19.018Z,1.80
2022-10-16T02:09:48.248Z,1.90
2022-10-16T02:12:26.473Z,1.65
2022-10-16T02:14:54.387Z,1.70
2022-10-16T02:17:21.504Z,1.90
2022-10-16T02:19:50.556Z,2.20
2022-10-16T02:22:33.554Z,1.80
2022-10-16T02:25:05.656Z,1.92
2022-10-16T02:27:59.836Z,1.52
2022-10-16T02:30:33.306Z,1.98
2022-10-16T02:33:02.717Z,2.20
2022-10-16T02:35:32.547Z,1.90
2022-10-16T02:38:00.082Z,1.88
2022-10-16T02:40:27.575Z,1.80
2022-10-16T02:42:56.052Z,1.92
2022-10-16T02:45:23.959Z,2.03
2022-10-16T02:47:50.797Z,1.83
2022-10-16T02:50:17.554Z,2.35
2022-10-16T02:52:46.651Z,2.17
2022-10-16T02:55:13.407Z,2.00
2022-10-16T02:57:41.259Z,2.30
2022-10-16T03:00:10.305Z,2.55
2022-10-16T03:02:36.884Z,2.80
2022-10-16T03:05:03.706Z,2.00
2022-10-16T03:07:30.347Z,2.28
2022-10-16T03:09:56.983Z,2.65
2022-10-16T03:12:23.685Z,2.10
2022-10-16T03:14:50.311Z,2.03
2022-10-16T03:17:17.785Z,2.10
2022-10-16T03:19:44.636Z,2.20
2022-10-16T03:22:11.554Z,2.08
2022-10-16T03:24:40.520Z,2.10
2022-10-16T03:27:07.218Z,2.45
2022-10-16T03:29:33.897Z,1.92
2022-10-16T03:32:01.186Z,1.83
2022-10-16T03:34:27.852Z,2.03
2022-10-16T03:36:54.693Z,2.00
2022-10-16T03:39:21.380Z,2.15
2022-10-16T03:41:48.316Z,1.90
2022-10-16T03:44:15.014Z,1.83
2022-10-16T03:46:41.982Z,2.10
2022-10-16T03:49:09.819Z,1.80
2022-10-16T03:51:36.970Z,2.08
2022-10-16T03:54:03.804Z,1.98
2022-10-16T03:56:33.127Z,2.30
2022-10-16T03:58:59.757Z,1.90
2022-10-16T04:01:28.594Z,1.85
2022-10-16T04:03:55.219Z,2.10
2022-10-16T04:06:21.907Z,2.00
2022-10-16T04:08:48.594Z,1.85
2022-10-16T04:11:15.268Z,1.80
2022-10-16T04:13:42.526Z,1.92
2022-10-16T04:16:09.151Z,2.00
2022-10-16T04:18:36.213Z,2.05
2022-10-16T04:21:07.269Z,1.80
2022-10-16T04:23:34.351Z,2.38
2022-10-16T04:26:03.755Z,2.00
2022-10-16T04:28:30.608Z,1.67
2022-10-16T04:30:57.293Z,1.90
2022-10-16T04:33:29.166Z,1.80
2022-10-16T04:36:00.415Z,1.63
2022-10-16T04:38:27.466Z,1.90
2022-10-16T04:40:54.184Z,1.67
2022-10-16T04:43:21.653Z,2.00
2022-10-16T04:45:48.445Z,2.13
2022-10-16T04:48:15.128Z,2.03
2022-10-16T04:50:42.562Z,2.13
2022-10-16T04:53:09.417Z,2.47
2022-10-16T04:55:36.135Z,1.80
2022-10-16T04:58:02.850Z,1.92
2022-10-16T05:00:29.545Z,2.20
2022-10-16T05:02:56.307Z,1.70
2022-10-16T05:05:24.017Z,2.22
2022-10-16T05:07:50.771Z,2.35
2022-10-16T05:10:17.998Z,2.00
2022-10-16T05:12:46.902Z,2.42
2022-10-16T05:15:13.731Z,2.42
2022-10-16T05:17:42.615Z,2.25
2022-10-16T05:20:12.049Z,2.45
2022-10-16T05:22:38.742Z,2.40
2022-10-16T05:25:05.983Z,2.30
2022-10-16T05:27:32.706Z,2.38
2022-10-16T05:29:59.362Z,2.83
2022-10-16T05:32:26.223Z,2.72
2022-10-16T05:34:53.028Z,2.78
2022-10-16T05:37:19.744Z,3.10
2022-10-16T05:39:46.369Z,3.00
2022-10-16T05:42:13.106Z,2.60
2022-10-16T05:44:41.880Z,3.28
2022-10-16T05:47:08.595Z,3.10
2022-10-16T05:49:37.850Z,3.00
2022-10-16T05:52:11.827Z,3.10
2022-10-16T05:54:40.626Z,2.88
2022-10-16T05:57:07.303Z,2.83
2022-10-16T05:59:33.945Z,2.67
2022-10-16T06:02:01.015Z,2.70
2022-10-16T06:04:27.661Z,2.63
2022-10-16T06:06:54.322Z,3.00
2022-10-16T06:09:20.984Z,3.30
2022-10-16T06:11:47.606Z,2.80
2022-10-16T06:14:14.322Z,3.00
2022-10-16T06:16:43.595Z,3.05
2022-10-16T06:19:12.656Z,2.90
2022-10-16T06:21:41.730Z,3.30
2022-10-16T06:24:09.021Z,3.15
2022-10-16T06:26:35.652Z,3.35
2022-10-16T06:29:02.788Z,2.85
2022-10-16T06:31:31.954Z,2.80
2022-10-16T06:33:59.345Z,3.15
2022-10-16T06:36:27.039Z,2.92
2022-10-16T06:38:54.214Z,2.80
2022-10-16T06:41:22.721Z,3.08
2022-10-16T06:43:49.766Z,3.05
2022-10-16T06:46:19.429Z,2.80
2022-10-16T06:48:46.119Z,3.38
2022-10-16T06:51:23.781Z,3.10
2022-10-16T06:54:07.655Z,3.20
2022-10-16T06:56:37.032Z,3.00
2022-10-16T06:59:04.240Z,3.17
2022-10-16T07:01:31.075Z,3.08
2022-10-16T07:03:58.310Z,3.25
2022-10-16T07:06:27.422Z,3.10
2022-10-16T07:08:54.230Z,3.05
2022-10-16T07:11:23.843Z,3.08
2022-10-16T07:13:55.830Z,3.08
2022-10-16T07:16:28.131Z,3.05
2022-10-16T07:18:59.948Z,3.28
2022-10-16T07:21:36.190Z,2.80
2022-10-16T07:24:03.179Z,3.10
2022-10-16T07:26:32.047Z,3.45
2022-10-16T07:28:59.075Z,2.80
2022-10-16T07:31:28.918Z,3.10
2022-10-16T07:33:55.861Z,3.33
2022-10-16T07:36:24.974Z,2.63
2022-10-16T07:38:54.170Z,3.00
2022-10-16T07:41:23.979Z,2.85
2022-10-16T07:43:53.494Z,2.90
2022-10-16T07:46:22.371Z,2.90
2022-10-16T07:48:49.396Z,2.85
2022-10-16T07:51:18.574Z,2.60
2022-10-16T07:53:45.432Z,2.40
2022-10-16T07:56:14.995Z,2.67
2022-10-16T07:58:42.143Z,2.40
2022-10-16T08:01:11.272Z,2.60
2022-10-16T08:03:38.774Z,2.58
2022-10-16T08:06:08.636Z,3.22
2022-10-16T08:08:36.256Z,2.42
2022-10-16T08:11:04.738Z,2.65
2022-10-16T08:13:32.096Z,2.63
2022-10-16T08:15:58.702Z,2.97
2022-10-16T08:18:27.983Z,2.80
2022-10-16T08:20:58.999Z,2.58
2022-10-16T08:23:27.063Z,2.40
2022-10-16T08:25:55.055Z,2.60
2022-10-16T08:28:22.217Z,2.70
2022-10-16T08:30:49.061Z,2.40
2022-10-16T08:33:15.702Z,2.10
2022-10-16T08:35:42.484Z,1.90
2022-10-16T08:38:11.724Z,2.05
2022-10-16T08:40:38.633Z,2.67
2022-10-16T08:43:36.340Z,2.10
2022-10-16T08:46:49.724Z,2.28
2022-10-16T08:49:18.608Z,2.60
2022-10-16T08:51:47.398Z,2.00
2022-10-16T08:54:20.124Z,2.42
2022-10-16T08:56:49.284Z,2.30
2022-10-16T08:59:17.474Z,1.90
2022-10-16T09:01:51.334Z,2.35
2022-10-16T09:06:53.214Z,2.50
2022-10-16T09:09:35.136Z,2.08
2022-10-16T09:12:31.829Z,2.20
2022-10-16T09:15:09.788Z,2.00
2022-10-16T09:17:36.382Z,2.13
2022-10-16T09:20:19.021Z,2.08
2022-10-16T09:22:46.089Z,1.60
2022-10-16T09:25:22.752Z,2.08
2022-10-16T09:27:56.589Z,2.00
2022-10-16T09:30:23.968Z,1.60
2022-10-16T09:32:54.556Z,1.77
2022-10-16T09:35:32.305Z,1.60
2022-10-16T09:37:59.250Z,1.70
2022-10-16T09:40:35.710Z,1.48
2022-10-16T09:43:22.629Z,1.42
2022-10-16T09:46:29.909Z,1.50
2022-10-16T09:48:59.742Z,1.75
2022-10-16T09:51:32.217Z,1.70
2022-10-16T09:54:19.107Z,2.25
2022-10-16T09:56:47.668Z,1.60
2022-10-16T09:59:24.613Z,1.90
2022-10-16T10:01:53.759Z,1.88
2022-10-16T10:04:21.590Z,1.50
2022-10-16T10:06:53.884Z,1.48
2022-10-16T10:09:23.286Z,1.60
2022-10-16T10:11:52.957Z,1.98
2022-10-16T10:14:37.299Z,1.50
2022-10-16T10:17:04.025Z,1.55
2022-10-16T10:19:32.943Z,1.50
2022-10-16T10:21:59.778Z,1.77
2022-10-16T10:24:26.503Z,1.50
2022-10-16T10:27:05.897Z,1.60
2022-10-16T10:29:40.493Z,1.80
2022-10-16T10:32:31.690Z,1.77
2022-10-16T10:35:16.817Z,1.95
2022-10-16T10:37:45.673Z,1.35
2022-10-16T10:40:34.039Z,1.60
2022-10-16T10:43:10.921Z,1.98
2022-10-16T10:45:47.682Z,2.17
2022-10-16T10:48:39.478Z,1.65
2022-10-16T10:51:11.874Z,1.70
2022-10-16T10:54:14.196Z,1.50
2022-10-16T10:56:46.270Z,1.60
2022-10-16T11:00:03.922Z,1.80
2022-10-16T11:03:03.552Z,1.70
2022-10-16T11:05:40.443Z,1.58
2022-10-16T11:08:19.558Z,1.60
2022-10-16T11:11:09.845Z,1.60
2022-10-16T11:13:43.844Z,1.88
2022-10-16T11:16:32.527Z,1.70
2022-10-16T11:19:05.346Z,1.60
2022-10-16T11:21:39.840Z,1.63
2022-10-16T11:24:17.236Z,1.83
2022-10-16T11:26:48.210Z,1.58
2022-10-16T11:29:26.353Z,1.50
2022-10-16T11:32:13.813Z,1.50
2022-10-16T11:34:48.769Z,1.83
2022-10-16T11:37:22.376Z,1.67
2022-10-16T11:42:31.381Z,1.60
2022-10-16T11:45:15.927Z,1.98
2022-10-16T11:47:59.332Z,1.67
2022-10-16T11:53:40.023Z,1.88
2022-10-16T11:56:07.145Z,1.77
2022-10-16T11:59:01.863Z,1.67
2022-10-16T12:01:34.337Z,2.00
2022-10-16T12:04:18.073Z,1.80
2022-10-16T12:06:58.463Z,2.17
2022-10-16T12:09:33.703Z,1.60
2022-10-16T12:12:01.207Z,1.88
2022-10-16T12:14:42.955Z,1.67
2022-10-16T12:17:28.447Z,1.70
2022-10-16T12:20:20.888Z,1.60
2022-10-16T12:22:51.831Z,1.67
2022-10-16T12:25:26.625Z,1.50
2022-10-16T12:27:57.647Z,2.05
2022-10-16T12:30:26.843Z,1.75
2022-10-16T12:32:57.016Z,2.20
2022-10-16T12:35:31.180Z,1.88
2022-10-16T12:38:18.963Z,1.50
2022-10-16T12:40:49.069Z,1.92
2022-10-16T12:43:29.015Z,1.80
2022-10-16T12:46:12.273Z,2.17
2022-10-16T12:48:48.638Z,1.80
2022-10-16T12:51:27.020Z,1.70
2022-10-16T12:54:17.806Z,2.20
2022-10-16T12:57:06.501Z,1.83
2022-10-16T13:00:01.845Z,2.53
2022-10-16T13:03:00.003Z,1.98
2022-10-16T13:08:31.886Z,1.88
2022-10-16T13:11:29.243Z,1.70
2022-10-16T13:14:14.713Z,1.85
2022-10-16T13:16:55.996Z,1.95
2022-10-16T13:19:54.203Z,1.80
2022-10-16T13:22:57.891Z,2.20
2022-10-16T13:25:46.210Z,2.10
2022-10-16T13:28:13.927Z,2.10
2022-10-16T13:30:44.523Z,2.15
2022-10-16T13:33:19.144Z,2.20
2022-10-16T13:35:56.560Z,2.30
2022-10-16T13:38:26.648Z,2.40
2022-10-16T13:41:01.828Z,2.50
2022-10-16T13:43:33.577Z,2.63
2022-10-16T13:46:17.105Z,2.08
2022-10-16T13:48:44.931Z,2.58
2022-10-16T13:51:19.346Z,2.28
2022-10-16T13:53:47.383Z,2.05
2022-10-16T13:56:17.634Z,2.03
2022-10-16T13:58:45.675Z,1.98
2022-10-16T14:01:15.277Z,2.33
2022-10-16T14:03:43.121Z,2.30
2022-10-16T14:06:16.811Z,2.45
2022-10-16T14:11:11.442Z,2.35
2022-10-16T14:13:48.649Z,2.28
2022-10-16T14:16:30.017Z,2.85
2022-10-16T14:19:02.328Z,2.30
2022-10-16T14:21:29.562Z,2.42
2022-10-16T14:23:59.059Z,2.10
2022-10-16T14:26:28.514Z,1.95
2022-10-16T14:29:14.758Z,1.83
2022-10-16T14:31:43.946Z,1.90
2022-10-16T14:34:33.655Z,1.95
2022-10-16T14:39:41.555Z,1.90
2022-10-16T14:42:25.267Z,1.95
2022-10-16T14:44:53.990Z,2.15
2022-10-16T14:47:26.267Z,2.30
2022-10-16T14:49:56.789Z,2.20
2022-10-16T14:52:23.654Z,1.98
2022-10-16T14:54:51.190Z,1.80
2022-10-16T14:57:20.356Z,2.25
2022-10-16T14:59:48.560Z,1.98
2022-10-16T15:02:38.440Z,1.98
2022-10-16T15:05:23.347Z,2.13
2022-10-16T15:07:50.185Z,1.90
2022-10-16T15:10:20.541Z,2.40
2022-10-16T15:12:47.345Z,2.20
2022-10-16T15:15:37.331Z,2.08
2022-10-16T15:18:04.789Z,2.33
2022-10-16T15:20:36.486Z,2.30
2022-10-16T15:23:23.009Z,2.40
2022-10-16T15:25:54.711Z,2.38
2022-10-16T15:28:27.489Z,2.30
2022-10-16T15:30:56.750Z,2.13
2022-10-16T15:33:37.067Z,1.98
2022-10-16T15:36:07.581Z,2.43
2022-10-16T15:38:34.456Z,2.28
2022-10-16T15:41:01.104Z,2.33
2022-10-16T15:43:28.059Z,1.98
2022-10-16T15:46:07.313Z,1.70
2022-10-16T15:48:34.464Z,2.10
2022-10-16T15:51:05.224Z,2.08
2022-10-16T15:53:31.885Z,1.83
2022-10-16T15:55:58.515Z,1.92
2022-10-16T15:58:25.418Z,2.10
2022-10-16T16:01:01.781Z,2.58
2022-10-16T16:03:29.097Z,2.00
2022-10-16T16:05:55.889Z,2.47
2022-10-16T16:08:22.685Z,2.20
2022-10-16T16:11:07.521Z,2.28
2022-10-16T16:13:34.609Z,2.97
2022-10-16T16:16:01.375Z,2.28
2022-10-16T16:18:29.544Z,2.40
2022-10-16T16:20:58.626Z,2.30
2022-10-16T16:23:27.502Z,2.15
2022-10-16T16:26:27.412Z,2.35
2022-10-16T16:28:55.420Z,2.70
2022-10-16T16:31:25.431Z,2.38
2022-10-16T16:33:52.321Z,2.63
2022-10-16T16:36:19.229Z,2.20
2022-10-16T16:38:49.247Z,2.72
2022-10-16T16:41:24.336Z,2.28
2022-10-16T16:43:55.702Z,2.85
2022-10-16T16:46:25.997Z,2.67
2022-10-16T16:48:54.407Z,2.95
2022-10-16T16:51:21.249Z,2.95
2022-10-16T16:53:51.254Z,3.50
2022-10-16T16:56:21.247Z,2.85
2022-10-16T16:58:49.873Z,3.28
2022-10-16T17:01:21.409Z,3.30
2022-10-16T17:03:51.410Z,2.88
2022-10-16T17:06:21.917Z,3.00
2022-10-16T17:08:50.293Z,3.45
2022-10-16T17:11:20.729Z,3.80
2022-10-16T17:13:51.185Z,4.38
2022-10-16T17:16:24.232Z,4.00
2022-10-16T17:18:51.008Z,3.83
2022-10-16T17:21:17.778Z,4.22
2022-10-16T17:23:44.441Z,4.57
2022-10-16T17:26:16.345Z,5.10
2022-10-16T17:28:44.370Z,6.30
2022-10-16T17:31:11.997Z,5.15
2022-10-16T17:33:39.377Z,4.93
2022-10-16T17:36:06.978Z,4.50
2022-10-16T17:38:34.029Z,5.47
2022-10-16T17:41:12.518Z,5.07
2022-10-16T17:43:39.712Z,5.05
2022-10-16T17:46:09.758Z,4.72
2022-10-16T17:48:48.427Z,5.13
2022-10-16T17:51:17.787Z,4.70
2022-10-16T17:53:47.868Z,5.47
2022-10-16T17:56:14.928Z,5.28
2022-10-16T17:58:42.075Z,4.70
2022-10-16T18:01:14.110Z,4.63
2022-10-16T18:03:41.034Z,4.18
2022-10-16T18:06:13.498Z,5.10
2022-10-16T18:08:42.408Z,4.30
2022-10-16T18:11:12.694Z,4.60
2022-10-16T18:13:40.054Z,6.18
2022-10-16T18:16:10.596Z,5.07
2022-10-16T18:18:40.707Z,5.20
2022-10-16T18:21:11.056Z,5.18
2022-10-16T18:23:38.286Z,5.22
2022-10-16T18:26:06.110Z,5.40
2022-10-16T18:28:33.472Z,4.55
2022-10-16T18:31:03.383Z,5.22
2022-10-16T18:33:30.907Z,4.93
2022-10-16T18:36:05.160Z,5.05
2022-10-16T18:38:32.199Z,5.10
2022-10-16T18:41:01.784Z,4.80
2022-10-16T18:43:30.494Z,4.82
2022-10-16T18:46:04.295Z,4.35
2022-10-16T18:48:31.889Z,5.45
2022-10-16T18:51:23.935Z,4.65
2022-10-16T18:53:56.106Z,5.13
2022-10-16T18:56:24.244Z,5.30
2022-10-16T18:58:59.133Z,4.60
2022-10-16T19:01:28.815Z,5.13
2022-10-16T19:04:04.201Z,5.13
2022-10-16T19:06:39.510Z,5.47
2022-10-16T19:09:06.480Z,4.53
2022-10-16T19:11:35.762Z,5.50
2022-10-16T19:14:10.665Z,5.43
2022-10-16T19:16:38.037Z,5.70
2022-10-16T19:19:07.805Z,5.35
2022-10-16T19:21:41.668Z,4.63
2022-10-16T19:26:39.559Z,4.90
2022-10-16T19:29:10.766Z,5.68
2022-10-16T19:31:38.324Z,4.72
2022-10-16T19:34:07.545Z,4.55
2022-10-16T19:36:36.589Z,4.57
2022-10-16T19:39:11.634Z,4.50
2022-10-16T19:41:38.809Z,4.80
2022-10-16T19:44:09.553Z,4.70
2022-10-16T19:46:36.860Z,4.68
2022-10-16T19:49:09.310Z,4.45
2022-10-16T19:51:36.650Z,5.35
2022-10-16T19:54:06.504Z,4.35
2022-10-16T19:56:37.330Z,5.20
2022-10-16T19:59:06.138Z,5.05
2022-10-16T20:01:33.334Z,4.82
2022-10-16T20:04:00.264Z,4.82
2022-10-16T20:06:29.649Z,4.47
2022-10-16T20:08:59.183Z,4.47
2022-10-16T20:11:30.746Z,5.05
2022-10-16T20:13:58.463Z,4.55
2022-10-16T20:16:26.487Z,4.15
2022-10-16T20:18:54.114Z,4.68
2022-10-16T20:21:26.884Z,5.00
2022-10-16T20:23:53.658Z,4.60
2022-10-16T20:26:23.942Z,4.38
2022-10-16T20:28:51.539Z,4.65
2022-10-16T20:31:22.635Z,5.07
2022-10-16T20:33:51.112Z,4.18
2022-10-16T20:36:21.563Z,4.63
2022-10-16T20:38:48.375Z,4.32
2022-10-16T20:41:16.446Z,4.97
2022-10-16T20:43:47.139Z,4.68
2022-10-16T20:46:16.270Z,4.30
2022-10-16T20:48:46.831Z,5.30
2022-10-16T20:51:24.278Z,5.32
2022-10-16T20:54:11.222Z,5.72
2022-10-16T20:56:37.981Z,5.13
2022-10-16T20:59:07.333Z,5.10
2022-10-16T21:01:36.284Z,5.00
2022-10-16T21:04:09.749Z,5.25
2022-10-16T21:06:38.939Z,5.32
2022-10-16T21:09:06.743Z,5.43
2022-10-16T21:11:35.306Z,5.28
2022-10-16T21:14:04.268Z,5.80
2022-10-16T21:16:31.691Z,6.57
2022-10-16T21:18:58.607Z,6.50
2022-10-16T21:21:28.166Z,6.07
2022-10-16T21:23:56.868Z,5.75
2022-10-16T21:26:26.363Z,5.35
2022-10-16T21:29:03.595Z,5.47
2022-10-16T21:31:30.300Z,5.15
2022-10-16T21:33:59.623Z,5.35
2022-10-16T21:36:30.709Z,5.70
2022-10-16T21:39:01.985Z,4.97
2022-10-16T21:41:29.730Z,4.78
2022-10-16T21:43:57.416Z,5.60
2022-10-16T21:46:26.750Z,5.10
2022-10-16T21:48:55.067Z,5.28
2022-10-16T21:51:29.607Z,5.35
2022-10-16T21:53:56.569Z,5.20
2022-10-16T21:56:25.486Z,5.03
2022-10-16T21:58:52.627Z,5.32
2022-10-16T22:01:22.841Z,5.25
2022-10-16T22:03:50.105Z,5.15
2022-10-16T22:08:54.358Z,5.53
2022-10-16T22:11:23.863Z,5.03
2022-10-16T22:13:54.052Z,4.80
2022-10-16T22:16:25.588Z,4.75
2022-10-16T22:18:56.752Z,5.13
2022-10-16T22:21:26.419Z,5.38
2022-10-16T22:23:53.059Z,5.15
2022-10-16T22:26:19.974Z,5.57
2022-10-16T22:28:46.698Z,5.70
2022-10-16T22:31:14.963Z,4.80
2022-10-16T22:33:42.270Z,5.63
2022-10-16T22:36:11.740Z,5.03
2022-10-16T22:38:38.799Z,4.68
2022-10-16T22:41:11.807Z,5.47
2022-10-16T22:43:41.361Z,5.10
2022-10-16T22:46:10.350Z,4.90
2022-10-16T22:48:37.373Z,5.18
2022-10-16T22:51:05.860Z,5.72
2022-10-16T22:53:33.363Z,4.80
2022-10-16T22:56:00.281Z,4.50
2022-10-16T22:58:27.521Z,4.70
2022-10-16T23:00:54.222Z,5.60
2022-10-16T23:03:21.020Z,5.20
2022-10-16T23:05:49.930Z,5.30
2022-10-16T23:08:16.772Z,4.88
2022-10-16T23:10:45.199Z,4.80
2022-10-16T23:13:13.066Z,4.80
2022-10-16T23:15:41.094Z,4.82
2022-10-16T23:18:08.075Z,4.20
2022-10-16T23:20:35.129Z,4.75
2022-10-16T23:23:01.836Z,4.50
2022-10-16T23:25:28.545Z,4.78
2022-10-16T23:27:58.027Z,4.78
2022-10-16T23:30:24.669Z,4.30
2022-10-16T23:32:51.295Z,3.90
2022-10-16T23:35:20.424Z,4.38
2022-10-16T23:37:49.359Z,4.28
2022-10-16T23:40:16.229Z,4.88
2022-10-16T23:42:42.891Z,4.55
2022-10-16T23:45:12.019Z,5.18
2022-10-16T23:47:38.609Z,4.10
2022-10-16T23:50:08.309Z,4.35
2022-10-16T23:52:34.936Z,4.55
2022-10-16T23:55:01.536Z,3.65
2022-10-16T23:57:28.418Z,3.75
2022-10-16T23:59:55.202Z,3.85
